sensor_id;sensor_type;location;lat;lon;timestamp;P1;durP1;ratioP1;P2;durP2;ratioP2
38252;SDS011;24785;52.372;20.672;2022-12-31T00:07:49;47.55;;;16.77;;
38252;SDS011;24785;52.372;20.672;2022-12-31T00:17:50;42.03;;;17.65;;
38252;SDS011;24785;52.372;20.672;2022-12-31T00:27:51;45.90;;;18.23;;
38252;SDS011;24785;52.372;20.672;2022-12-31T00:37:51;46.47;;;18.67;;
38252;SDS011;24785;52.372;20.672;2022-12-31T00:47:52;48.90;;;19.27;;
38252;SDS011;24785;52.372;20.672;2022-12-31T00:57:53;43.80;;;17.33;;
38252;SDS011;24785;52.372;20.672;2022-12-31T01:07:54;40.95;;;17.17;;
38252;SDS011;24785;52.372;20.672;2022-12-31T01:17:55;39.92;;;17.70;;
38252;SDS011;24785;52.372;20.672;2022-12-31T01:27:57;43.87;;;18.70;;
38252;SDS011;24785;52.372;20.672;2022-12-31T01:37:58;42.22;;;18.20;;
38252;SDS011;24785;52.372;20.672;2022-12-31T01:47:58;44.60;;;18.85;;
38252;SDS011;24785;52.372;20.672;2022-12-31T01:58:03;38.58;;;16.13;;
38252;SDS011;24785;52.372;20.672;2022-12-31T02:08:08;38.70;;;15.13;;
38252;SDS011;24785;52.372;20.672;2022-12-31T02:38:55;32.03;;;12.63;;
38252;SDS011;24785;52.372;20.672;2022-12-31T02:49:01;27.30;;;10.73;;
38252;SDS011;24785;52.372;20.672;2022-12-31T02:59:32;26.47;;;10.40;;
38252;SDS011;24785;52.372;20.672;2022-12-31T03:09:56;23.27;;;9.07;;
38252;SDS011;24785;52.372;20.672;2022-12-31T03:19:57;25.50;;;10.68;;
38252;SDS011;24785;52.372;20.672;2022-12-31T03:30:17;24.95;;;11.25;;
38252;SDS011;24785;52.372;20.672;2022-12-31T03:40:20;28.13;;;12.32;;
38252;SDS011;24785;52.372;20.672;2022-12-31T03:50:23;31.30;;;12.57;;
38252;SDS011;24785;52.372;20.672;2022-12-31T04:00:24;24.27;;;10.98;;
38252;SDS011;24785;52.372;20.672;2022-12-31T04:10:25;24.65;;;12.15;;
38252;SDS011;24785;52.372;20.672;2022-12-31T04:20:26;26.05;;;11.45;;
38252;SDS011;24785;52.372;20.672;2022-12-31T04:30:27;28.67;;;12.38;;
38252;SDS011;24785;52.372;20.672;2022-12-31T04:40:28;28.17;;;11.57;;
38252;SDS011;24785;52.372;20.672;2022-12-31T04:50:29;22.73;;;10.93;;
38252;SDS011;24785;52.372;20.672;2022-12-31T05:00:30;28.88;;;12.75;;
38252;SDS011;24785;52.372;20.672;2022-12-31T05:10:31;24.77;;;11.38;;
38252;SDS011;24785;52.372;20.672;2022-12-31T05:20:32;29.48;;;11.65;;
38252;SDS011;24785;52.372;20.672;2022-12-31T05:30:33;28.35;;;12.45;;
38252;SDS011;24785;52.372;20.672;2022-12-31T05:40:33;22.15;;;10.27;;
38252;SDS011;24785;52.372;20.672;2022-12-31T05:50:34;25.20;;;11.93;;
38252;SDS011;24785;52.372;20.672;2022-12-31T06:00:35;26.23;;;10.63;;
38252;SDS011;24785;52.372;20.672;2022-12-31T06:10:36;21.38;;;10.38;;
38252;SDS011;24785;52.372;20.672;2022-12-31T06:20:37;20.50;;;9.43;;
38252;SDS011;24785;52.372;20.672;2022-12-31T06:30:38;21.45;;;10.30;;
38252;SDS011;24785;52.372;20.672;2022-12-31T06:40:39;23.58;;;10.18;;
38252;SDS011;24785;52.372;20.672;2022-12-31T06:50:40;22.20;;;9.73;;
38252;SDS011;24785;52.372;20.672;2022-12-31T07:00:53;22.58;;;9.65;;
38252;SDS011;24785;52.372;20.672;2022-12-31T07:11:10;17.98;;;8.88;;
38252;SDS011;24785;52.372;20.672;2022-12-31T07:21:32;23.73;;;12.23;;
38252;SDS011;24785;52.372;20.672;2022-12-31T07:52:13;18.00;;;8.00;;
38252;SDS011;24785;52.372;20.672;2022-12-31T08:12:34;18.88;;;7.28;;
38252;SDS011;24785;52.372;20.672;2022-12-31T08:22:40;16.13;;;6.72;;
38252;SDS011;24785;52.372;20.672;2022-12-31T08:44:03;13.00;;;6.22;;
38252;SDS011;24785;52.372;20.672;2022-12-31T08:54:10;13.57;;;6.40;;
38252;SDS011;24785;52.372;20.672;2022-12-31T09:24:40;12.80;;;6.30;;
38252;SDS011;24785;52.372;20.672;2022-12-31T10:26:49;10.95;;;5.05;;
38252;SDS011;24785;52.372;20.672;2022-12-31T10:37:07;10.65;;;4.80;;
38252;SDS011;24785;52.372;20.672;2022-12-31T11:18:30;9.63;;;4.32;;
38252;SDS011;24785;52.372;20.672;2022-12-31T11:29:13;7.63;;;3.67;;
38252;SDS011;24785;52.372;20.672;2022-12-31T12:00:23;5.78;;;3.08;;
38252;SDS011;24785;52.372;20.672;2022-12-31T12:20:41;5.95;;;3.20;;
38252;SDS011;24785;52.372;20.672;2022-12-31T12:30:51;9.65;;;4.00;;
38252;SDS011;24785;52.372;20.672;2022-12-31T12:40:58;8.88;;;3.88;;
38252;SDS011;24785;52.372;20.672;2022-12-31T12:51:05;20.33;;;10.73;;
38252;SDS011;24785;52.372;20.672;2022-12-31T13:01:32;12.68;;;5.78;;
38252;SDS011;24785;52.372;20.672;2022-12-31T13:32:39;10.02;;;4.25;;
38252;SDS011;24785;52.372;20.672;2022-12-31T13:42:48;7.03;;;3.28;;
38252;SDS011;24785;52.372;20.672;2022-12-31T13:52:59;8.80;;;3.97;;
38252;SDS011;24785;52.372;20.672;2022-12-31T14:03:05;7.93;;;4.20;;
38252;SDS011;24785;52.372;20.672;2022-12-31T14:23:45;7.40;;;3.72;;
38252;SDS011;24785;52.372;20.672;2022-12-31T14:34:05;9.65;;;3.78;;
38252;SDS011;24785;52.372;20.672;2022-12-31T14:45:23;6.85;;;3.30;;
38252;SDS011;24785;52.372;20.672;2022-12-31T15:05:17;10.60;;;4.00;;
38252;SDS011;24785;52.372;20.672;2022-12-31T15:25:38;9.93;;;4.28;;
38252;SDS011;24785;52.372;20.672;2022-12-31T15:35:46;10.10;;;4.30;;
38252;SDS011;24785;52.372;20.672;2022-12-31T15:45:52;35.03;;;15.65;;
38252;SDS011;24785;52.372;20.672;2022-12-31T15:55:56;10.63;;;6.75;;
38252;SDS011;24785;52.372;20.672;2022-12-31T16:06:00;8.73;;;3.83;;
38252;SDS011;24785;52.372;20.672;2022-12-31T16:16:05;10.93;;;3.60;;
38252;SDS011;24785;52.372;20.672;2022-12-31T16:26:08;8.30;;;4.10;;
38252;SDS011;24785;52.372;20.672;2022-12-31T16:36:17;7.47;;;3.77;;
38252;SDS011;24785;52.372;20.672;2022-12-31T16:46:24;9.25;;;3.78;;
38252;SDS011;24785;52.372;20.672;2022-12-31T16:56:35;11.73;;;3.92;;
38252;SDS011;24785;52.372;20.672;2022-12-31T17:06:38;10.02;;;4.00;;
38252;SDS011;24785;52.372;20.672;2022-12-31T17:26:53;17.63;;;9.00;;
38252;SDS011;24785;52.372;20.672;2022-12-31T17:47:09;7.68;;;3.42;;
38252;SDS011;24785;52.372;20.672;2022-12-31T17:57:20;6.70;;;3.28;;
38252;SDS011;24785;52.372;20.672;2022-12-31T18:07:27;9.13;;;3.72;;
38252;SDS011;24785;52.372;20.672;2022-12-31T18:17:27;8.80;;;3.65;;
38252;SDS011;24785;52.372;20.672;2022-12-31T18:27:28;8.10;;;3.60;;
38252;SDS011;24785;52.372;20.672;2022-12-31T18:37:33;7.95;;;3.65;;
38252;SDS011;24785;52.372;20.672;2022-12-31T18:47:35;9.18;;;4.63;;
38252;SDS011;24785;52.372;20.672;2022-12-31T18:57:36;8.43;;;3.75;;
38252;SDS011;24785;52.372;20.672;2022-12-31T19:07:37;8.82;;;4.30;;
38252;SDS011;24785;52.372;20.672;2022-12-31T19:17:38;11.43;;;3.70;;
38252;SDS011;24785;52.372;20.672;2022-12-31T19:27:39;10.57;;;4.28;;
38252;SDS011;24785;52.372;20.672;2022-12-31T19:37:40;7.80;;;3.60;;
38252;SDS011;24785;52.372;20.672;2022-12-31T19:57:44;12.60;;;5.85;;
38252;SDS011;24785;52.372;20.672;2022-12-31T20:07:45;8.18;;;4.10;;
38252;SDS011;24785;52.372;20.672;2022-12-31T20:17:46;8.30;;;3.63;;
38252;SDS011;24785;52.372;20.672;2022-12-31T20:27:47;16.65;;;7.18;;
38252;SDS011;24785;52.372;20.672;2022-12-31T20:37:48;8.40;;;4.80;;
38252;SDS011;24785;52.372;20.672;2022-12-31T20:47:49;9.38;;;4.10;;
38252;SDS011;24785;52.372;20.672;2022-12-31T20:57:51;10.07;;;4.65;;
38252;SDS011;24785;52.372;20.672;2022-12-31T21:07:52;10.10;;;4.27;;
38252;SDS011;24785;52.372;20.672;2022-12-31T21:17:53;13.50;;;4.63;;
38252;SDS011;24785;52.372;20.672;2022-12-31T21:27:55;7.43;;;3.38;;
38252;SDS011;24785;52.372;20.672;2022-12-31T21:38:02;12.70;;;3.78;;
38252;SDS011;24785;52.372;20.672;2022-12-31T21:48:04;8.55;;;3.78;;
38252;SDS011;24785;52.372;20.672;2022-12-31T21:58:22;11.45;;;4.57;;
38252;SDS011;24785;52.372;20.672;2022-12-31T22:08:23;6.75;;;3.63;;
38252;SDS011;24785;52.372;20.672;2022-12-31T22:18:24;10.45;;;4.65;;
38252;SDS011;24785;52.372;20.672;2022-12-31T22:28:26;11.05;;;4.38;;
38252;SDS011;24785;52.372;20.672;2022-12-31T22:38:28;10.40;;;3.85;;
38252;SDS011;24785;52.372;20.672;2022-12-31T22:48:29;9.03;;;4.10;;
38252;SDS011;24785;52.372;20.672;2022-12-31T22:58:30;10.95;;;3.72;;
38252;SDS011;24785;52.372;20.672;2022-12-31T23:08:31;36.03;;;12.90;;
38252;SDS011;24785;52.372;20.672;2022-12-31T23:18:32;12.32;;;5.50;;
38252;SDS011;24785;52.372;20.672;2022-12-31T23:28:53;8.23;;;3.83;;
38252;SDS011;24785;52.372;20.672;2022-12-31T23:38:54;11.63;;;4.78;;
38252;SDS011;24785;52.372;20.672;2022-12-31T23:48:55;12.18;;;5.85;;
38252;SDS011;24785;52.372;20.672;2022-12-31T23:58:56;10.52;;;5.72;;
